sensor_id;sensor_type;location;lat;lon;timestamp;pressure;altitude;pressure_sealevel;temperature;humidity
1616;BME280;801;47.982;7.810;2023-02-28T00:00:53;99129.91;;;1.42;61.91
1616;BME280;801;47.982;7.810;2023-02-28T00:03:19;99128.59;;;1.53;61.31
1616;BME280;801;47.982;7.810;2023-02-28T00:05:46;99129.28;;;1.40;61.52
1616;BME280;801;47.982;7.810;2023-02-28T00:08:12;99125.50;;;1.28;61.62
1616;BME280;801;47.982;7.810;2023-02-28T00:10:39;99123.72;;;1.35;61.27
1616;BME280;801;47.982;7.810;2023-02-28T00:13:07;99112.69;;;1.32;62.59
1616;BME280;801;47.982;7.810;2023-02-28T00:15:34;99123.56;;;1.37;62.26
1616;BME280;801;47.982;7.810;2023-02-28T00:18:01;99126.94;;;1.31;62.71
1616;BME280;801;47.982;7.810;2023-02-28T00:20:28;99128.03;;;1.36;61.79
1616;BME280;801;47.982;7.810;2023-02-28T00:22:54;99121.19;;;1.27;63.10
1616;BME280;801;47.982;7.810;2023-02-28T00:25:23;99128.09;;;1.07;64.35
1616;BME280;801;47.982;7.810;2023-02-28T00:27:51;99127.81;;;1.16;63.96
1616;BME280;801;47.982;7.810;2023-02-28T00:30:21;99119.31;;;1.21;63.94
1616;BME280;801;47.982;7.810;2023-02-28T00:32:48;99123.97;;;1.40;63.35
1616;BME280;801;47.982;7.810;2023-02-28T00:35:15;99118.94;;;1.24;63.86
1616;BME280;801;47.982;7.810;2023-02-28T00:37:42;99118.03;;;1.17;64.98
1616;BME280;801;47.982;7.810;2023-02-28T00:40:10;99119.25;;;1.36;63.77
1616;BME280;801;47.982;7.810;2023-02-28T00:42:37;99121.47;;;1.32;64.87
1616;BME280;801;47.982;7.810;2023-02-28T00:45:05;99120.19;;;1.28;65.17
1616;BME280;801;47.982;7.810;2023-02-28T00:47:33;99116.88;;;1.41;64.70
1616;BME280;801;47.982;7.810;2023-02-28T00:49:59;99119.00;;;1.31;65.07
1616;BME280;801;47.982;7.810;2023-02-28T00:52:26;99123.72;;;1.35;64.97
1616;BME280;801;47.982;7.810;2023-02-28T00:54:52;99122.03;;;1.28;65.42
1616;BME280;801;47.982;7.810;2023-02-28T00:57:19;99117.66;;;1.20;65.07
1616;BME280;801;47.982;7.810;2023-02-28T00:59:46;99121.41;;;1.26;65.30
1616;BME280;801;47.982;7.810;2023-02-28T01:02:12;99124.44;;;1.44;65.38
1616;BME280;801;47.982;7.810;2023-02-28T01:04:40;99120.53;;;1.61;64.32
1616;BME280;801;47.982;7.810;2023-02-28T01:07:07;99117.06;;;1.39;65.39
1616;BME280;801;47.982;7.810;2023-02-28T01:09:33;99118.88;;;1.39;65.36
1616;BME280;801;47.982;7.810;2023-02-28T01:12:00;99111.69;;;1.33;65.94
1616;BME280;801;47.982;7.810;2023-02-28T01:14:26;99112.25;;;1.28;66.29
1616;BME280;801;47.982;7.810;2023-02-28T01:16:53;99113.03;;;1.43;66.35
1616;BME280;801;47.982;7.810;2023-02-28T01:19:19;99108.47;;;1.37;65.39
1616;BME280;801;47.982;7.810;2023-02-28T01:21:47;99106.84;;;1.36;66.83
1616;BME280;801;47.982;7.810;2023-02-28T01:24:14;99104.63;;;1.40;66.36
1616;BME280;801;47.982;7.810;2023-02-28T01:26:40;99103.19;;;1.37;65.58
1616;BME280;801;47.982;7.810;2023-02-28T01:29:06;99102.16;;;1.38;66.56
1616;BME280;801;47.982;7.810;2023-02-28T01:31:33;99105.66;;;1.39;67.05
1616;BME280;801;47.982;7.810;2023-02-28T01:33:59;99111.63;;;1.26;67.41
1616;BME280;801;47.982;7.810;2023-02-28T01:36:26;99117.19;;;1.53;67.23
1616;BME280;801;47.982;7.810;2023-02-28T01:38:54;99105.06;;;1.22;69.25
1616;BME280;801;47.982;7.810;2023-02-28T01:41:22;99106.56;;;1.31;68.45
1616;BME280;801;47.982;7.810;2023-02-28T01:43:58;99109.22;;;1.31;68.45
1616;BME280;801;47.982;7.810;2023-02-28T01:46:24;99105.94;;;1.29;68.82
1616;BME280;801;47.982;7.810;2023-02-28T01:48:53;99103.59;;;1.19;69.24
1616;BME280;801;47.982;7.810;2023-02-28T01:51:22;99100.31;;;1.17;69.09
1616;BME280;801;47.982;7.810;2023-02-28T01:53:56;99093.31;;;1.10;69.51
1616;BME280;801;47.982;7.810;2023-02-28T01:56:28;99100.63;;;1.29;69.40
1616;BME280;801;47.982;7.810;2023-02-28T01:58:56;99101.41;;;1.23;69.40
1616;BME280;801;47.982;7.810;2023-02-28T02:01:23;99091.19;;;1.20;70.20
1616;BME280;801;47.982;7.810;2023-02-28T02:03:52;99094.22;;;1.17;70.19
1616;BME280;801;47.982;7.810;2023-02-28T02:06:21;99083.97;;;0.92;70.49
1616;BME280;801;47.982;7.810;2023-02-28T02:08:47;99092.53;;;0.94;70.40
1616;BME280;801;47.982;7.810;2023-02-28T02:11:18;99083.00;;;1.15;70.33
1616;BME280;801;47.982;7.810;2023-02-28T02:14:08;99084.75;;;1.08;69.79
1616;BME280;801;47.982;7.810;2023-02-28T02:16:43;99088.41;;;1.28;69.94
1616;BME280;801;47.982;7.810;2023-02-28T02:19:29;99086.34;;;1.23;69.50
1616;BME280;801;47.982;7.810;2023-02-28T02:22:12;99081.94;;;0.94;70.80
1616;BME280;801;47.982;7.810;2023-02-28T02:25:11;99077.38;;;1.03;71.39
1616;BME280;801;47.982;7.810;2023-02-28T02:28:04;99070.59;;;1.00;71.73
1616;BME280;801;47.982;7.810;2023-02-28T02:30:57;99074.38;;;0.91;71.75
1616;BME280;801;47.982;7.810;2023-02-28T02:36:34;99070.72;;;0.92;72.20
1616;BME280;801;47.982;7.810;2023-02-28T02:39:06;99080.34;;;0.78;73.80
1616;BME280;801;47.982;7.810;2023-02-28T02:41:40;99079.94;;;0.96;73.56
1616;BME280;801;47.982;7.810;2023-02-28T02:44:17;99080.09;;;1.10;72.47
1616;BME280;801;47.982;7.810;2023-02-28T02:46:47;99079.31;;;0.94;72.98
1616;BME280;801;47.982;7.810;2023-02-28T02:49:17;99075.16;;;1.07;72.48
1616;BME280;801;47.982;7.810;2023-02-28T02:51:47;99076.75;;;0.86;73.60
1616;BME280;801;47.982;7.810;2023-02-28T02:54:17;99075.31;;;0.83;73.86
1616;BME280;801;47.982;7.810;2023-02-28T02:56:48;99074.00;;;0.94;73.92
1616;BME280;801;47.982;7.810;2023-02-28T02:59:16;99077.09;;;0.98;74.60
1616;BME280;801;47.982;7.810;2023-02-28T03:01:49;99075.63;;;0.95;75.01
1616;BME280;801;47.982;7.810;2023-02-28T03:04:18;99070.41;;;1.02;74.62
1616;BME280;801;47.982;7.810;2023-02-28T03:06:47;99071.94;;;0.90;76.30
1616;BME280;801;47.982;7.810;2023-02-28T03:09:14;99074.75;;;0.88;78.13
1616;BME280;801;47.982;7.810;2023-02-28T03:11:41;99074.66;;;0.96;79.03
1616;BME280;801;47.982;7.810;2023-02-28T03:14:29;99066.56;;;0.83;80.73
1616;BME280;801;47.982;7.810;2023-02-28T03:17:10;99074.69;;;0.67;81.89
1616;BME280;801;47.982;7.810;2023-02-28T03:19:47;99066.22;;;0.41;83.90
1616;BME280;801;47.982;7.810;2023-02-28T03:22:29;99069.31;;;0.60;84.03
1616;BME280;801;47.982;7.810;2023-02-28T03:25:05;99068.19;;;0.69;82.90
1616;BME280;801;47.982;7.810;2023-02-28T03:27:38;99068.13;;;0.62;83.38
1616;BME280;801;47.982;7.810;2023-02-28T03:30:10;99062.31;;;0.52;83.61
1616;BME280;801;47.982;7.810;2023-02-28T03:32:44;99061.34;;;0.75;83.17
1616;BME280;801;47.982;7.810;2023-02-28T03:35:16;99071.22;;;0.81;82.66
1616;BME280;801;47.982;7.810;2023-02-28T03:37:50;99072.09;;;0.88;82.43
1616;BME280;801;47.982;7.810;2023-02-28T03:40:20;99062.09;;;0.69;82.70
1616;BME280;801;47.982;7.810;2023-02-28T03:42:52;99071.13;;;0.74;83.48
1616;BME280;801;47.982;7.810;2023-02-28T03:45:22;99072.97;;;0.59;85.09
1616;BME280;801;47.982;7.810;2023-02-28T03:47:53;99079.34;;;0.65;84.33
1616;BME280;801;47.982;7.810;2023-02-28T03:50:23;99077.97;;;0.69;84.54
1616;BME280;801;47.982;7.810;2023-02-28T03:52:56;99076.97;;;0.70;84.52
1616;BME280;801;47.982;7.810;2023-02-28T03:55:28;99071.56;;;0.78;84.32
1616;BME280;801;47.982;7.810;2023-02-28T03:58:01;99073.53;;;1.06;82.77
1616;BME280;801;47.982;7.810;2023-02-28T04:00:32;99068.16;;;0.99;83.22
1616;BME280;801;47.982;7.810;2023-02-28T04:03:01;99068.44;;;0.89;82.87
1616;BME280;801;47.982;7.810;2023-02-28T04:05:28;99068.56;;;0.66;84.66
1616;BME280;801;47.982;7.810;2023-02-28T04:08:04;99074.41;;;0.76;83.13
1616;BME280;801;47.982;7.810;2023-02-28T04:10:31;99077.22;;;0.75;83.50
1616;BME280;801;47.982;7.810;2023-02-28T04:12:58;99076.41;;;1.11;82.96
1616;BME280;801;47.982;7.810;2023-02-28T04:15:24;99076.28;;;0.97;82.66
1616;BME280;801;47.982;7.810;2023-02-28T04:17:52;99070.59;;;1.00;82.87
1616;BME280;801;47.982;7.810;2023-02-28T04:20:19;99072.47;;;0.85;83.93
1616;BME280;801;47.982;7.810;2023-02-28T04:22:46;99081.06;;;0.87;84.17
1616;BME280;801;47.982;7.810;2023-02-28T04:25:13;99086.19;;;0.74;84.98
1616;BME280;801;47.982;7.810;2023-02-28T04:27:40;99090.25;;;0.91;85.16
1616;BME280;801;47.982;7.810;2023-02-28T04:30:08;99080.69;;;0.90;86.08
1616;BME280;801;47.982;7.810;2023-02-28T04:32:34;99086.53;;;0.86;86.73
1616;BME280;801;47.982;7.810;2023-02-28T04:35:01;99088.28;;;0.78;86.94
1616;BME280;801;47.982;7.810;2023-02-28T04:37:27;99088.91;;;0.66;89.16
1616;BME280;801;47.982;7.810;2023-02-28T04:39:54;99091.00;;;0.55;91.06
1616;BME280;801;47.982;7.810;2023-02-28T04:42:22;99091.19;;;0.69;91.38
1616;BME280;801;47.982;7.810;2023-02-28T04:44:48;99092.09;;;0.76;93.09
1616;BME280;801;47.982;7.810;2023-02-28T04:47:15;99093.19;;;0.81;93.49
1616;BME280;801;47.982;7.810;2023-02-28T04:49:41;99091.00;;;0.85;95.32
1616;BME280;801;47.982;7.810;2023-02-28T04:52:08;99091.25;;;0.90;96.19
1616;BME280;801;47.982;7.810;2023-02-28T04:54:35;99091.81;;;0.86;96.47
1616;BME280;801;47.982;7.810;2023-02-28T04:57:03;99093.38;;;0.80;96.64
1616;BME280;801;47.982;7.810;2023-02-28T04:59:31;99098.78;;;0.72;97.69
1616;BME280;801;47.982;7.810;2023-02-28T05:01:58;99104.78;;;0.66;98.95
1616;BME280;801;47.982;7.810;2023-02-28T05:04:24;99102.97;;;0.66;99.02
1616;BME280;801;47.982;7.810;2023-02-28T05:06:50;99091.31;;;0.60;99.06
1616;BME280;801;47.982;7.810;2023-02-28T05:09:17;99092.94;;;0.61;100.00
1616;BME280;801;47.982;7.810;2023-02-28T05:11:43;99105.16;;;0.62;100.00
1616;BME280;801;47.982;7.810;2023-02-28T05:14:11;99101.88;;;0.60;100.00
1616;BME280;801;47.982;7.810;2023-02-28T05:16:39;99101.25;;;0.58;100.00
1616;BME280;801;47.982;7.810;2023-02-28T05:19:06;99101.31;;;0.80;99.41
1616;BME280;801;47.982;7.810;2023-02-28T05:21:34;99103.47;;;0.91;99.71
1616;BME280;801;47.982;7.810;2023-02-28T05:24:02;99109.06;;;0.81;100.00
1616;BME280;801;47.982;7.810;2023-02-28T05:26:30;99107.78;;;0.62;100.00
1616;BME280;801;47.982;7.810;2023-02-28T05:28:57;99110.81;;;0.59;100.00
1616;BME280;801;47.982;7.810;2023-02-28T05:31:23;99115.09;;;0.75;100.00
1616;BME280;801;47.982;7.810;2023-02-28T05:33:52;99116.28;;;0.73;100.00
1616;BME280;801;47.982;7.810;2023-02-28T05:36:18;99112.28;;;0.47;100.00
1616;BME280;801;47.982;7.810;2023-02-28T05:38:46;99117.47;;;0.26;100.00
1616;BME280;801;47.982;7.810;2023-02-28T05:41:14;99114.47;;;0.58;100.00
1616;BME280;801;47.982;7.810;2023-02-28T05:43:40;99115.47;;;0.43;100.00
1616;BME280;801;47.982;7.810;2023-02-28T05:46:09;99116.28;;;0.43;100.00
1616;BME280;801;47.982;7.810;2023-02-28T05:48:37;99118.91;;;0.28;100.00
1616;BME280;801;47.982;7.810;2023-02-28T05:51:06;99115.19;;;0.23;100.00
1616;BME280;801;47.982;7.810;2023-02-28T05:53:33;99116.69;;;0.02;100.00
1616;BME280;801;47.982;7.810;2023-02-28T05:56:00;99118.06;;;-0.02;100.00
1616;BME280;801;47.982;7.810;2023-02-28T05:58:27;99127.44;;;0.01;100.00
1616;BME280;801;47.982;7.810;2023-02-28T06:00:56;99114.41;;;-0.01;100.00
1616;BME280;801;47.982;7.810;2023-02-28T06:03:22;99110.63;;;-0.22;100.00
1616;BME280;801;47.982;7.810;2023-02-28T06:05:49;99119.84;;;-0.17;100.00
1616;BME280;801;47.982;7.810;2023-02-28T06:08:17;99111.00;;;-0.10;100.00
1616;BME280;801;47.982;7.810;2023-02-28T06:10:44;99106.75;;;-0.11;100.00
1616;BME280;801;47.982;7.810;2023-02-28T06:13:11;99112.44;;;-0.22;100.00
1616;BME280;801;47.982;7.810;2023-02-28T06:15:37;99122.53;;;-0.26;100.00
1616;BME280;801;47.982;7.810;2023-02-28T06:18:04;99116.06;;;-0.23;100.00
1616;BME280;801;47.982;7.810;2023-02-28T06:20:31;99117.47;;;-0.12;100.00
1616;BME280;801;47.982;7.810;2023-02-28T06:22:57;99113.94;;;-0.05;100.00
1616;BME280;801;47.982;7.810;2023-02-28T06:25:26;99126.06;;;-0.10;100.00
1616;BME280;801;47.982;7.810;2023-02-28T06:27:53;99115.84;;;-0.13;100.00
1616;BME280;801;47.982;7.810;2023-02-28T06:30:21;99125.28;;;-0.19;100.00
1616;BME280;801;47.982;7.810;2023-02-28T06:32:50;99130.75;;;-0.21;100.00
1616;BME280;801;47.982;7.810;2023-02-28T06:35:17;99128.88;;;-0.12;100.00
1616;BME280;801;47.982;7.810;2023-02-28T06:37:43;99129.75;;;-0.19;100.00
1616;BME280;801;47.982;7.810;2023-02-28T06:40:10;99132.84;;;0.07;100.00
1616;BME280;801;47.982;7.810;2023-02-28T06:42:40;99137.13;;;0.08;100.00
1616;BME280;801;47.982;7.810;2023-02-28T06:45:07;99138.03;;;0.15;100.00
1616;BME280;801;47.982;7.810;2023-02-28T06:47:34;99145.63;;;-0.19;100.00
1616;BME280;801;47.982;7.810;2023-02-28T06:50:01;99141.84;;;0.13;100.00
1616;BME280;801;47.982;7.810;2023-02-28T06:52:28;99144.06;;;0.09;100.00
1616;BME280;801;47.982;7.810;2023-02-28T06:54:54;99145.72;;;0.25;100.00
1616;BME280;801;47.982;7.810;2023-02-28T06:57:25;99146.38;;;0.27;100.00
1616;BME280;801;47.982;7.810;2023-02-28T06:59:52;99143.69;;;0.12;100.00
1616;BME280;801;47.982;7.810;2023-02-28T07:02:19;99143.94;;;0.03;100.00
1616;BME280;801;47.982;7.810;2023-02-28T07:04:45;99138.84;;;0.01;100.00
1616;BME280;801;47.982;7.810;2023-02-28T07:07:12;99144.16;;;-0.22;100.00
1616;BME280;801;47.982;7.810;2023-02-28T07:09:38;99146.81;;;-0.07;100.00
1616;BME280;801;47.982;7.810;2023-02-28T07:12:05;99153.75;;;-0.06;100.00
1616;BME280;801;47.982;7.810;2023-02-28T07:14:32;99155.28;;;0.11;100.00
1616;BME280;801;47.982;7.810;2023-02-28T07:17:00;99165.31;;;0.16;100.00
1616;BME280;801;47.982;7.810;2023-02-28T07:19:26;99164.31;;;-0.29;100.00
1616;BME280;801;47.982;7.810;2023-02-28T07:21:53;99164.22;;;-0.13;100.00
1616;BME280;801;47.982;7.810;2023-02-28T07:24:19;99163.31;;;-0.05;100.00
1616;BME280;801;47.982;7.810;2023-02-28T07:26:46;99148.13;;;-0.03;100.00
1616;BME280;801;47.982;7.810;2023-02-28T07:29:13;99163.03;;;-0.10;100.00
1616;BME280;801;47.982;7.810;2023-02-28T07:31:39;99156.31;;;0.02;100.00
1616;BME280;801;47.982;7.810;2023-02-28T07:34:07;99166.78;;;0.18;100.00
1616;BME280;801;47.982;7.810;2023-02-28T07:36:34;99156.94;;;-0.11;100.00
1616;BME280;801;47.982;7.810;2023-02-28T07:39:00;99159.50;;;-0.03;100.00
1616;BME280;801;47.982;7.810;2023-02-28T07:41:27;99168.41;;;0.19;100.00
1616;BME280;801;47.982;7.810;2023-02-28T07:43:55;99161.19;;;0.13;100.00
1616;BME280;801;47.982;7.810;2023-02-28T07:46:22;99168.34;;;0.28;100.00
1616;BME280;801;47.982;7.810;2023-02-28T07:48:49;99168.28;;;0.13;100.00
1616;BME280;801;47.982;7.810;2023-02-28T07:51:17;99170.69;;;0.23;100.00
1616;BME280;801;47.982;7.810;2023-02-28T07:53:44;99168.06;;;0.23;100.00
1616;BME280;801;47.982;7.810;2023-02-28T07:56:10;99173.19;;;0.39;100.00
1616;BME280;801;47.982;7.810;2023-02-28T07:58:37;99172.72;;;0.35;100.00
1616;BME280;801;47.982;7.810;2023-02-28T08:01:07;99172.06;;;0.18;100.00
1616;BME280;801;47.982;7.810;2023-02-28T08:03:35;99175.88;;;0.16;100.00
1616;BME280;801;47.982;7.810;2023-02-28T08:06:02;99175.56;;;0.34;100.00
1616;BME280;801;47.982;7.810;2023-02-28T08:08:30;99171.00;;;0.57;100.00
1616;BME280;801;47.982;7.810;2023-02-28T08:10:58;99169.75;;;0.83;100.00
1616;BME280;801;47.982;7.810;2023-02-28T08:13:26;99178.84;;;0.95;100.00
1616;BME280;801;47.982;7.810;2023-02-28T08:15:52;99179.50;;;0.97;100.00
1616;BME280;801;47.982;7.810;2023-02-28T08:18:20;99172.94;;;0.64;100.00
1616;BME280;801;47.982;7.810;2023-02-28T08:20:47;99176.50;;;0.86;100.00
1616;BME280;801;47.982;7.810;2023-02-28T08:23:13;99181.03;;;1.07;100.00
1616;BME280;801;47.982;7.810;2023-02-28T08:25:41;99182.94;;;1.13;100.00
1616;BME280;801;47.982;7.810;2023-02-28T08:28:08;99182.13;;;0.97;100.00
1616;BME280;801;47.982;7.810;2023-02-28T08:30:35;99182.94;;;0.98;100.00
1616;BME280;801;47.982;7.810;2023-02-28T08:33:01;99185.59;;;1.13;100.00
1616;BME280;801;47.982;7.810;2023-02-28T08:35:28;99186.06;;;1.01;100.00
1616;BME280;801;47.982;7.810;2023-02-28T08:37:55;99186.63;;;0.67;100.00
1616;BME280;801;47.982;7.810;2023-02-28T08:40:21;99190.81;;;0.76;100.00
1616;BME280;801;47.982;7.810;2023-02-28T08:42:49;99186.91;;;0.87;100.00
1616;BME280;801;47.982;7.810;2023-02-28T08:45:16;99192.53;;;1.14;100.00
1616;BME280;801;47.982;7.810;2023-02-28T08:47:42;99202.53;;;1.33;100.00
1616;BME280;801;47.982;7.810;2023-02-28T08:50:10;99194.09;;;1.23;100.00
1616;BME280;801;47.982;7.810;2023-02-28T08:52:36;99192.09;;;1.10;100.00
1616;BME280;801;47.982;7.810;2023-02-28T08:55:04;99204.06;;;1.42;100.00
1616;BME280;801;47.982;7.810;2023-02-28T08:57:30;99209.88;;;1.68;100.00
1616;BME280;801;47.982;7.810;2023-02-28T08:59:58;99202.81;;;1.96;100.00
1616;BME280;801;47.982;7.810;2023-02-28T09:02:24;99202.66;;;1.83;100.00
1616;BME280;801;47.982;7.810;2023-02-28T09:04:51;99203.31;;;1.85;100.00
1616;BME280;801;47.982;7.810;2023-02-28T09:07:17;99210.19;;;1.79;100.00
1616;BME280;801;47.982;7.810;2023-02-28T09:09:44;99196.94;;;1.79;100.00
1616;BME280;801;47.982;7.810;2023-02-28T09:12:19;99202.91;;;1.66;100.00
1616;BME280;801;47.982;7.810;2023-02-28T09:14:46;99198.34;;;1.97;100.00
1616;BME280;801;47.982;7.810;2023-02-28T09:17:13;99202.69;;;2.04;100.00
1616;BME280;801;47.982;7.810;2023-02-28T09:19:40;99202.38;;;1.93;99.04
1616;BME280;801;47.982;7.810;2023-02-28T09:22:07;99196.69;;;1.96;92.88
1616;BME280;801;47.982;7.810;2023-02-28T09:24:35;99199.22;;;2.54;92.90
1616;BME280;801;47.982;7.810;2023-02-28T09:27:01;99201.13;;;3.01;88.18
1616;BME280;801;47.982;7.810;2023-02-28T09:29:28;99204.25;;;3.11;86.14
1616;BME280;801;47.982;7.810;2023-02-28T09:31:54;99199.53;;;3.07;82.34
1616;BME280;801;47.982;7.810;2023-02-28T09:34:24;99208.22;;;3.29;82.33
1616;BME280;801;47.982;7.810;2023-02-28T09:36:50;99201.84;;;3.23;81.37
1616;BME280;801;47.982;7.810;2023-02-28T09:39:20;99204.06;;;3.13;80.32
1616;BME280;801;47.982;7.810;2023-02-28T09:41:48;99207.09;;;3.51;78.53
1616;BME280;801;47.982;7.810;2023-02-28T09:44:22;99210.59;;;3.65;77.02
1616;BME280;801;47.982;7.810;2023-02-28T09:46:55;99199.00;;;3.86;79.09
1616;BME280;801;47.982;7.810;2023-02-28T09:49:31;99201.38;;;3.61;76.56
1616;BME280;801;47.982;7.810;2023-02-28T09:52:01;99205.25;;;3.52;77.47
1616;BME280;801;47.982;7.810;2023-02-28T09:54:30;99207.16;;;3.71;76.74
1616;BME280;801;47.982;7.810;2023-02-28T09:56:59;99200.22;;;3.90;75.19
1616;BME280;801;47.982;7.810;2023-02-28T09:59:39;99205.13;;;3.87;74.44
1616;BME280;801;47.982;7.810;2023-02-28T10:02:32;99213.13;;;3.93;74.00
1616;BME280;801;47.982;7.810;2023-02-28T10:05:07;99206.03;;;3.52;73.52
1616;BME280;801;47.982;7.810;2023-02-28T10:07:46;99210.38;;;3.60;74.98
1616;BME280;801;47.982;7.810;2023-02-28T10:10:20;99201.34;;;3.54;75.01
1616;BME280;801;47.982;7.810;2023-02-28T10:12:52;99198.19;;;3.99;74.94
1616;BME280;801;47.982;7.810;2023-02-28T10:15:21;99202.09;;;4.03;73.52
1616;BME280;801;47.982;7.810;2023-02-28T10:17:54;99203.16;;;4.35;72.78
1616;BME280;801;47.982;7.810;2023-02-28T10:20:24;99210.50;;;4.20;71.29
1616;BME280;801;47.982;7.810;2023-02-28T10:22:58;99210.28;;;4.28;71.64
1616;BME280;801;47.982;7.810;2023-02-28T10:25:27;99218.88;;;4.24;72.79
1616;BME280;801;47.982;7.810;2023-02-28T10:27:57;99215.78;;;3.93;71.84
1616;BME280;801;47.982;7.810;2023-02-28T10:30:27;99222.09;;;3.86;73.19
1616;BME280;801;47.982;7.810;2023-02-28T10:32:54;99217.84;;;4.05;72.07
1616;BME280;801;47.982;7.810;2023-02-28T10:35:23;99212.53;;;3.98;73.15
1616;BME280;801;47.982;7.810;2023-02-28T10:37:53;99217.41;;;3.94;72.66
1616;BME280;801;47.982;7.810;2023-02-28T10:40:32;99217.03;;;4.11;72.05
1616;BME280;801;47.982;7.810;2023-02-28T10:43:02;99216.66;;;4.41;70.79
1616;BME280;801;47.982;7.810;2023-02-28T10:45:30;99220.53;;;4.71;69.71
1616;BME280;801;47.982;7.810;2023-02-28T10:48:01;99231.09;;;5.18;66.59
1616;BME280;801;47.982;7.810;2023-02-28T10:50:34;99220.53;;;4.71;67.29
1616;BME280;801;47.982;7.810;2023-02-28T10:53:34;99227.69;;;4.51;69.45
1616;BME280;801;47.982;7.810;2023-02-28T10:56:03;99225.25;;;4.56;67.63
1616;BME280;801;47.982;7.810;2023-02-28T10:58:33;99217.88;;;4.18;69.99
1616;BME280;801;47.982;7.810;2023-02-28T11:01:13;99225.84;;;4.11;71.97
1616;BME280;801;47.982;7.810;2023-02-28T11:03:40;99233.22;;;4.69;70.96
1616;BME280;801;47.982;7.810;2023-02-28T11:06:14;99229.63;;;5.22;66.64
1616;BME280;801;47.982;7.810;2023-02-28T11:08:47;99219.84;;;5.03;65.57
1616;BME280;801;47.982;7.810;2023-02-28T11:11:15;99236.97;;;5.27;64.57
1616;BME280;801;47.982;7.810;2023-02-28T11:13:44;99224.78;;;4.99;65.79
1616;BME280;801;47.982;7.810;2023-02-28T11:16:12;99227.28;;;4.61;66.64
1616;BME280;801;47.982;7.810;2023-02-28T11:18:42;99236.63;;;5.16;65.87
1616;BME280;801;47.982;7.810;2023-02-28T11:21:19;99229.50;;;4.97;66.76
1616;BME280;801;47.982;7.810;2023-02-28T11:23:49;99222.34;;;4.77;68.39
1616;BME280;801;47.982;7.810;2023-02-28T11:26:36;99223.69;;;5.13;66.11
1616;BME280;801;47.982;7.810;2023-02-28T11:29:10;99212.75;;;6.18;63.58
1616;BME280;801;47.982;7.810;2023-02-28T11:31:37;99232.91;;;6.14;61.32
1616;BME280;801;47.982;7.810;2023-02-28T11:34:23;99235.38;;;5.26;64.72
1616;BME280;801;47.982;7.810;2023-02-28T11:36:51;99235.19;;;5.20;64.51
1616;BME280;801;47.982;7.810;2023-02-28T11:39:19;99228.91;;;4.82;66.19
1616;BME280;801;47.982;7.810;2023-02-28T11:44:58;99229.97;;;4.54;67.49
1616;BME280;801;47.982;7.810;2023-02-28T11:47:33;99222.78;;;4.61;69.13
1616;BME280;801;47.982;7.810;2023-02-28T11:50:14;99229.13;;;4.73;68.41
1616;BME280;801;47.982;7.810;2023-02-28T11:52:48;99219.06;;;4.75;67.75
1616;BME280;801;47.982;7.810;2023-02-28T11:55:21;99226.47;;;4.73;67.05
1616;BME280;801;47.982;7.810;2023-02-28T11:58:04;99227.50;;;4.46;68.53
1616;BME280;801;47.982;7.810;2023-02-28T12:00:43;99218.25;;;4.68;69.59
1616;BME280;801;47.982;7.810;2023-02-28T12:03:20;99220.72;;;4.43;69.44
1616;BME280;801;47.982;7.810;2023-02-28T12:05:56;99232.81;;;4.59;70.84
1616;BME280;801;47.982;7.810;2023-02-28T12:08:39;99224.81;;;4.59;70.35
1616;BME280;801;47.982;7.810;2023-02-28T12:11:13;99220.53;;;4.58;69.18
1616;BME280;801;47.982;7.810;2023-02-28T12:13:48;99224.00;;;4.72;70.45
1616;BME280;801;47.982;7.810;2023-02-28T12:16:36;99223.19;;;4.65;70.76
1616;BME280;801;47.982;7.810;2023-02-28T12:19:17;99220.28;;;4.79;70.96
1616;BME280;801;47.982;7.810;2023-02-28T12:21:55;99219.00;;;5.02;69.15
1616;BME280;801;47.982;7.810;2023-02-28T12:24:41;99223.97;;;4.85;68.06
1616;BME280;801;47.982;7.810;2023-02-28T12:27:16;99224.34;;;4.95;70.00
1616;BME280;801;47.982;7.810;2023-02-28T12:29:48;99222.72;;;5.01;67.86
1616;BME280;801;47.982;7.810;2023-02-28T12:32:18;99217.59;;;4.93;68.30
1616;BME280;801;47.982;7.810;2023-02-28T12:34:49;99210.47;;;4.93;67.73
1616;BME280;801;47.982;7.810;2023-02-28T12:37:29;99221.94;;;4.87;68.43
1616;BME280;801;47.982;7.810;2023-02-28T12:40:02;99218.84;;;4.90;67.96
1616;BME280;801;47.982;7.810;2023-02-28T12:42:33;99215.47;;;5.22;68.36
1616;BME280;801;47.982;7.810;2023-02-28T12:45:07;99212.25;;;5.06;66.95
1616;BME280;801;47.982;7.810;2023-02-28T12:47:38;99208.72;;;5.19;67.97
1616;BME280;801;47.982;7.810;2023-02-28T12:50:07;99211.59;;;5.17;67.69
1616;BME280;801;47.982;7.810;2023-02-28T12:52:43;99206.31;;;5.04;67.47
1616;BME280;801;47.982;7.810;2023-02-28T12:55:19;99204.00;;;5.28;68.01
1616;BME280;801;47.982;7.810;2023-02-28T12:57:53;99202.13;;;5.28;66.52
1616;BME280;801;47.982;7.810;2023-02-28T13:00:29;99194.00;;;5.16;67.08
1616;BME280;801;47.982;7.810;2023-02-28T13:03:15;99197.41;;;5.37;66.14
1616;BME280;801;47.982;7.810;2023-02-28T13:05:55;99195.50;;;5.44;66.95
1616;BME280;801;47.982;7.810;2023-02-28T13:08:47;99194.28;;;5.40;66.67
1616;BME280;801;47.982;7.810;2023-02-28T13:11:28;99189.00;;;5.27;66.91
1616;BME280;801;47.982;7.810;2023-02-28T13:14:00;99187.63;;;5.62;65.04
1616;BME280;801;47.982;7.810;2023-02-28T13:16:27;99186.72;;;5.75;65.57
1616;BME280;801;47.982;7.810;2023-02-28T13:19:09;99184.06;;;5.37;67.25
1616;BME280;801;47.982;7.810;2023-02-28T13:21:42;99184.66;;;5.39;66.98
1616;BME280;801;47.982;7.810;2023-02-28T13:24:09;99191.56;;;5.53;65.91
1616;BME280;801;47.982;7.810;2023-02-28T13:29:58;99195.38;;;5.71;67.30
1616;BME280;801;47.982;7.810;2023-02-28T13:32:35;99189.91;;;5.97;64.95
1616;BME280;801;47.982;7.810;2023-02-28T13:35:38;99197.72;;;5.60;65.68
1616;BME280;801;47.982;7.810;2023-02-28T13:38:32;99191.41;;;5.48;65.78
1616;BME280;801;47.982;7.810;2023-02-28T13:44:06;99194.97;;;5.22;65.94
1616;BME280;801;47.982;7.810;2023-02-28T13:46:36;99208.50;;;5.72;66.65
1616;BME280;801;47.982;7.810;2023-02-28T13:49:18;99195.69;;;5.94;64.53
1616;BME280;801;47.982;7.810;2023-02-28T13:51:47;99190.34;;;5.94;64.02
1616;BME280;801;47.982;7.810;2023-02-28T13:54:24;99190.34;;;5.94;64.44
1616;BME280;801;47.982;7.810;2023-02-28T13:57:04;99194.66;;;5.89;64.36
1616;BME280;801;47.982;7.810;2023-02-28T13:59:45;99191.34;;;5.93;63.15
1616;BME280;801;47.982;7.810;2023-02-28T14:02:32;99196.72;;;5.87;62.85
1616;BME280;801;47.982;7.810;2023-02-28T14:05:05;99207.84;;;6.15;63.04
1616;BME280;801;47.982;7.810;2023-02-28T14:07:37;99192.38;;;5.92;63.27
1616;BME280;801;47.982;7.810;2023-02-28T14:10:21;99204.31;;;5.96;64.13